Time;durP1;ratioP1;P1;durP2;ratioP2;P2;SDS_P1;SDS_P2;PMS_P1;PMS_P2;Temp;Humidity;BMP_temperature;BMP_pressure;BME280_temperature;BME280_humidity;BME280_pressure;Samples;Min_cycle;Max_cycle;Signal;HPM_P1;HPM_P2
2023/03/21 00:49:19;;;;;;;;;;;;;;;;;;;;;
2023/03/21 00:52:41;;;;;;;;;;;;;;;;;;;;;
2023/03/21 00:59:36;;;;;;;;;;;;;;;;;;;;;
2023/03/21 07:16:26;;;;;;;;;;;;;;;;;;;;;
2023/03/21 07:41:03;;;;;;;;;;;;;;;;;;;;;
2023/03/21 07:47:20;;;;;;;13.10;6.50;;;11.70;99.90;;;;;;4990746;28;20442;-83
2023/03/21 07:50:33;;;;;;;;;;;;;;;;;;;;;
2023/03/21 07:57:03;;;;;;;;;;;;;;;;;;;;;
2023/03/21 08:03:38;;;;;;;13.83;5.80;;;11.90;99.90;;;;;;4985121;28;20481;-82
2023/03/21 08:10:16;;;;;;;;;;;;;;;;;;;;;
2023/03/21 08:14:12;;;;;;;16.53;7.50;;;11.80;1.00;;;;;;5004001;28;20535;-83
2023/03/21 08:20:17;;;;;;;;;;;;;;;;;;;;;
2023/03/21 08:23:42;;;;;;;;;;;;;;;;;;;;;
2023/03/21 08:27:04;;;;;;;;;;;;;;;;;;;;;
2023/03/21 08:30:00;;;;;;;14.33;6.97;;;12.10;1.00;;;;;;5000536;28;20530;-82
2023/03/21 08:32:49;;;;;;;11.60;6.90;;;12.20;1.00;;;;;;4985895;28;20453;-80
2023/03/21 08:36:16;;;;;;;15.53;5.83;;;12.30;1.00;;;;;;4987383;28;20431;-83
2023/03/21 08:42:59;;;;;;;10.20;5.93;;;12.40;1.00;;;;;;4990369;28;20465;-81
2023/03/21 08:45:54;;;;;;;9.97;5.40;;;12.60;99.90;;;;;;5009737;28;20433;-82
2023/03/21 08:51:50;;;;;;;13.40;5.47;;;12.80;99.90;;;;;;4990523;28;20459;-82
2023/03/21 08:54:27;;;;;;;7.57;4.57;;;12.90;31.40;;;;;;4995147;28;20829;-83
2023/03/21 08:57:03;;;;;;;;;;;;;;;;;;;;;
2023/03/21 09:03:31;;;;;;;;;;;;;;;;;;;;;
2023/03/21 09:05:57;;;;;;;7.97;4.90;;;13.20;18.40;;;;;;5000282;28;20470;-82
2023/03/21 09:08:23;;;;;;;11.43;5.20;;;13.30;1.00;;;;;;5005490;28;20454;-83
2023/03/21 09:10:53;;;;;;;10.40;5.93;;;13.30;99.90;;;;;;4999321;28;20495;-82
2023/03/21 09:13:19;;;;;;;13.97;5.90;;;13.50;99.90;;;;;;5005960;28;20199;-83
2023/03/21 09:15:45;;;;;;;8.50;5.57;;;13.70;99.90;;;;;;5002003;28;20433;-82
2023/03/21 09:18:16;;;;;;;12.80;6.73;;;13.90;1.00;;;;;;5004094;28;20457;-82
2023/03/21 09:20:45;;;;;;;9.00;5.43;;;14.10;99.90;;;;;;5001191;28;20656;-84
2023/03/21 09:23:14;;;;;;;14.57;6.70;;;14.20;1.00;;;;;;4978894;28;20564;-83
2023/03/21 09:25:41;;;;;;;9.23;5.50;;;14.50;1.00;;;;;;4997689;28;20454;-83
2023/03/21 09:28:07;;;;;;;9.30;4.80;;;14.60;1.00;;;;;;5001348;28;20445;-83
2023/03/21 09:30:34;;;;;;;6.90;5.43;;;14.80;1.00;;;;;;5004170;28;20501;-83
2023/03/21 09:33:02;;;;;;;10.27;6.30;;;14.90;42.30;;;;;;5007096;28;20987;-83
2023/03/21 09:35:28;;;;;;;15.40;8.33;;;14.90;1.00;;;;;;4990229;28;20442;-83
2023/03/21 09:37:57;;;;;;;10.20;6.47;;;14.80;1.00;;;;;;4990846;28;20449;-84
2023/03/21 09:41:03;;;;;;;23.00;13.30;;;14.70;1.00;;;;;;5002320;28;20442;-85
2023/03/21 09:43:38;;;;;;;13.47;6.60;;;14.70;1.00;;;;;;5003667;28;20576;-84
2023/03/21 09:46:35;;;;;;;25.23;15.70;;;14.70;1.00;;;;;;5003762;28;20452;-83
2023/03/21 09:49:08;;;;;;;24.67;11.37;;;14.80;25.70;;;;;;5000692;28;20492;-83
2023/03/21 09:51:39;;;;;;;25.97;13.13;;;15.10;99.90;;;;;;4990926;28;20469;-83
2023/03/21 09:54:21;;;;;;;14.77;6.80;;;15.60;1.00;;;;;;5000830;28;20445;-83
2023/03/21 09:56:55;;;;;;;17.73;10.30;;;16.20;99.90;;;;;;5005497;28;20467;-83
2023/03/21 09:59:41;;;;;;;15.50;8.90;;;16.80;1.00;;;;;;5004247;28;20604;-83
2023/03/21 10:02:34;;;;;;;19.53;9.50;;;17.70;99.90;;;;;;5006028;28;20455;-83
2023/03/21 10:05:03;;;;;;;11.47;6.70;;;18.20;1.00;;;;;;5003731;28;20474;-82
2023/03/21 10:07:34;;;;;;;13.30;6.50;;;18.20;1.00;;;;;;5006237;28;20431;-83
2023/03/21 10:10:03;;;;;;;16.63;8.80;;;18.10;1.00;;;;;;5002847;28;20478;-83
2023/03/21 10:12:29;;;;;;;11.07;5.67;;;17.90;1.00;;;;;;5007130;28;20476;-83
2023/03/21 10:14:57;;;;;;;14.53;6.90;;;17.70;1.00;;;;;;4993954;28;21070;-82
2023/03/21 10:17:35;;;;;;;14.87;7.40;;;17.50;1.00;;;;;;5005136;28;20469;-82
2023/03/21 10:20:13;;;;;;;11.77;6.10;;;17.40;1.00;;;;;;5006363;28;20448;-82
2023/03/21 10:22:39;;;;;;;13.30;7.50;;;17.40;1.00;;;;;;4989962;28;20764;-83
2023/03/21 10:25:09;;;;;;;13.60;5.40;;;17.50;1.00;;;;;;5007851;28;20480;-83
2023/03/21 10:27:40;;;;;;;10.83;6.20;;;17.50;1.00;;;;;;4995964;28;20433;-82
2023/03/21 10:30:11;;;;;;;8.77;5.10;;;17.60;99.90;;;;;;5005782;28;20476;-84
2023/03/21 10:32:36;;;;;;;9.00;5.40;;;17.50;99.90;;;;;;4987857;28;20466;-84
2023/03/21 10:35:05;;;;;;;10.20;5.83;;;17.60;99.90;;;;;;5004963;28;20452;-83
2023/03/21 10:37:35;;;;;;;8.00;3.10;;;17.60;99.90;;;;;;5006408;28;20193;-84
2023/03/21 10:40:00;;;;;;;10.87;3.20;;;17.70;99.90;;;;;;5005400;28;20445;-84
2023/03/21 10:42:30;;;;;;;10.60;4.30;;;17.80;99.90;;;;;;5005258;28;20458;-83
2023/03/21 10:44:58;;;;;;;15.40;7.80;;;18.00;99.90;;;;;;5003828;28;20210;-83
2023/03/21 10:47:32;;;;;;;8.77;4.10;;;18.20;99.90;;;;;;5001462;28;20499;-82
2023/03/21 10:50:11;;;;;;;15.30;5.60;;;18.40;99.90;;;;;;5001335;28;20545;-82
2023/03/21 10:52:41;;;;;;;10.10;5.03;;;18.30;99.90;;;;;;5000582;28;20839;-82
2023/03/21 10:55:30;;;;;;;10.13;5.50;;;18.30;99.90;;;;;;5002270;28;20917;-83
2023/03/21 10:58:26;;;;;;;8.77;4.63;;;18.10;99.90;;;;;;4998463;28;20433;-83
2023/03/21 11:01:06;;;;;;;33.23;12.53;;;17.90;99.90;;;;;;5007481;28;20442;-84
2023/03/21 11:03:35;;;;;;;14.50;7.67;;;17.50;99.90;;;;;;5009732;28;20428;-84
2023/03/21 11:06:26;;;;;;;15.97;8.00;;;17.30;99.90;;;;;;5004337;28;20448;-83
2023/03/21 11:09:01;;;;;;;15.83;8.37;;;17.10;99.90;;;;;;4986039;28;20445;-81
2023/03/21 11:11:39;;;;;;;14.37;7.03;;;16.90;99.90;;;;;;5003972;28;20539;-83
2023/03/21 11:14:18;;;;;;;7.40;5.03;;;16.90;99.90;;;;;;4987531;28;20475;-84
2023/03/21 11:16:51;;;;;;;17.93;8.53;;;17.00;99.90;;;;;;5004936;28;20654;-83
2023/03/21 11:19:26;;;;;;;20.70;10.50;;;17.00;99.90;;;;;;5005010;28;20436;-83
2023/03/21 11:21:52;;;;;;;16.30;9.50;;;16.90;99.90;;;;;;4996696;28;20538;-82
2023/03/21 11:24:19;;;;;;;14.77;6.77;;;16.70;99.90;;;;;;4987982;28;20435;-84
2023/03/21 11:26:49;;;;;;;15.07;9.03;;;16.50;99.90;;;;;;5002836;28;20453;-84
2023/03/21 11:29:54;;;;;;;31.00;14.03;;;16.20;99.90;;;;;;5004260;28;20440;-81
2023/03/21 11:32:33;;;;;;;16.03;9.47;;;15.80;1.00;;;;;;4925637;29;20460;-84
2023/03/21 11:35:05;;;;;;;14.77;10.30;;;15.60;1.00;;;;;;4924379;28;20463;-82
2023/03/21 11:37:45;;;;;;;14.93;9.30;;;15.50;1.00;;;;;;5007192;28;20461;-85
2023/03/21 11:40:25;;;;;;;15.37;9.43;;;15.30;77.10;;;;;;5009606;28;20533;-82
2023/03/21 11:43:22;;;;;;;15.70;9.20;;;15.30;99.90;;;;;;5011922;28;20465;-81
2023/03/21 11:46:03;;;;;;;18.00;8.90;;;15.30;99.90;;;;;;5006457;28;20446;-82
2023/03/21 11:48:32;;;;;;;16.33;7.57;;;15.40;1.00;;;;;;5001589;28;20443;-82
2023/03/21 11:51:03;;;;;;;10.23;6.03;;;15.50;1.00;;;;;;5008471;28;20471;-83
2023/03/21 11:53:46;;;;;;;9.90;6.00;;;15.50;99.90;;;;;;5008142;28;20498;-83
2023/03/21 11:56:54;;;;;;;14.83;6.60;;;15.50;99.90;;;;;;5001999;28;20430;-82
2023/03/21 11:59:29;;;;;;;17.37;7.47;;;15.50;99.90;;;;;;4947853;29;20761;-83
2023/03/21 12:02:25;;;;;;;10.90;7.03;;;15.50;99.90;;;;;;4946249;29;20460;-84
2023/03/21 12:05:20;;;;;;;10.17;7.00;;;15.60;1.00;;;;;;4992852;28;20439;-83
2023/03/21 12:08:35;;;;;;;12.77;7.37;;;15.90;99.90;;;;;;4981101;28;20436;-84
2023/03/21 12:11:27;;;;;;;9.63;5.50;;;16.30;99.90;;;;;;4984916;28;20489;-81
2023/03/21 12:14:31;;;;;;;8.53;5.73;;;16.80;99.90;;;;;;5001272;28;20457;-82
2023/03/21 12:17:19;;;;;;;10.33;5.40;;;17.10;1.00;;;;;;5004010;28;20457;-81
2023/03/21 12:20:14;;;;;;;10.40;5.63;;;17.40;1.00;;;;;;5004909;28;20546;-83
2023/03/21 12:30:22;;;;;;;;;;;;;;;;;;;;;
2023/03/21 12:33:41;;;;;;;;;;;;;;;;;;;;;
2023/03/21 12:36:46;;;;;;;;;;;;;;;;;;;;;
2023/03/21 12:40:24;;;;;;;;;;;;;;;;;;;;;
2023/03/21 12:46:17;;;;;;;6.67;3.77;;;18.50;99.90;;;;;;4990129;28;20457;-84
2023/03/21 12:48:48;;;;;;;6.90;4.83;;;18.50;99.90;;;;;;4999858;28;20449;-83
2023/03/21 12:51:21;;;;;;;7.73;4.63;;;18.30;99.90;;;;;;5007800;28;20472;-85
2023/03/21 12:54:06;;;;;;;6.77;4.00;;;18.20;99.90;;;;;;4988171;28;20444;-84
2023/03/21 12:57:02;;;;;;;7.80;3.40;;;18.20;99.90;;;;;;4987078;28;20476;-84
2023/03/21 13:00:10;;;;;;;4.70;3.33;;;18.20;99.90;;;;;;5005244;28;20457;-82
2023/03/21 13:02:54;;;;;;;4.23;3.60;;;18.50;99.90;;;;;;4990412;28;20521;-82
2023/03/21 13:05:27;;;;;;;4.73;3.33;;;18.80;99.90;;;;;;4983092;28;20492;-83
2023/03/21 13:08:17;;;;;;;4.73;3.70;;;19.00;99.90;;;;;;5005511;28;20447;-84
2023/03/21 13:10:44;;;;;;;4.03;3.03;;;19.50;99.90;;;;;;4989652;28;20496;-85
2023/03/21 13:13:36;;;;;;;4.90;3.27;;;20.00;99.90;;;;;;5006493;28;20531;-83
2023/03/21 13:16:39;;;;;;;5.70;2.90;;;20.10;99.90;;;;;;5006525;28;20444;-83
2023/03/21 13:19:27;;;;;;;6.30;3.20;;;20.10;99.90;;;;;;4999394;28;20467;-84
2023/03/21 13:22:05;;;;;;;5.97;3.57;;;20.10;99.90;;;;;;5004582;28;20463;-83
2023/03/21 13:24:33;;;;;;;5.60;3.00;;;20.10;99.90;;;;;;5002027;28;20432;-83
2023/03/21 13:27:05;;;;;;;7.50;3.23;;;20.20;99.90;;;;;;5000956;28;20518;-83
2023/03/21 13:29:49;;;;;;;3.03;2.40;;;20.20;99.90;;;;;;5001857;28;20427;-83
2023/03/21 13:32:31;;;;;;;6.60;3.40;;;20.20;99.90;;;;;;4999294;28;20515;-85
2023/03/21 13:35:15;;;;;;;4.90;3.10;;;20.30;99.90;;;;;;4987348;28;20801;-84
2023/03/21 13:37:51;;;;;;;4.10;2.83;;;20.20;99.90;;;;;;5003642;28;20832;-83
2023/03/21 13:41:03;;;;;;;3.87;2.30;;;20.10;99.90;;;;;;5000049;28;21638;-85
2023/03/21 13:46:58;;;;;;;;;;;;;;;;;;;;;
2023/03/21 13:53:10;;;;;;;5.00;3.43;;;20.30;99.90;;;;;;4987633;28;20461;-83
2023/03/21 13:55:43;;;;;;;6.73;3.10;;;20.50;99.90;;;;;;5000228;28;20463;-84
2023/03/21 13:58:37;;;;;;;5.73;3.67;;;20.40;99.90;;;;;;5002983;28;20467;-82
2023/03/21 14:01:20;;;;;;;4.03;3.17;;;20.30;99.90;;;;;;4997215;28;20449;-83
2023/03/21 14:03:46;;;;;;;3.13;2.47;;;20.20;99.90;;;;;;5007332;28;20459;-83
2023/03/21 14:06:17;;;;;;;5.00;3.20;;;20.10;99.90;;;;;;5007084;28;20470;-83
2023/03/21 14:08:46;;;;;;;5.50;3.20;;;19.90;99.90;;;;;;5003394;28;20457;-84
2023/03/21 14:11:20;;;;;;;4.70;2.63;;;19.80;99.90;;;;;;5005992;28;20456;-81
2023/03/21 14:13:49;;;;;;;6.20;2.77;;;19.70;99.90;;;;;;5005854;28;20534;-81
2023/03/21 14:16:22;;;;;;;11.93;2.63;;;19.70;99.90;;;;;;5003039;28;20445;-85
2023/03/21 14:18:55;;;;;;;6.43;2.57;;;19.70;99.90;;;;;;5005000;28;20905;-84
2023/03/21 14:21:23;;;;;;;3.03;2.23;;;19.60;99.90;;;;;;4988638;28;20463;-84
2023/03/21 14:24:03;;;;;;;5.83;2.83;;;19.70;99.90;;;;;;4984177;28;20647;-84
2023/03/21 14:26:36;;;;;;;2.90;2.40;;;19.80;99.90;;;;;;5003418;28;20908;-85
2023/03/21 14:29:04;;;;;;;6.33;2.60;;;19.90;99.90;;;;;;4999057;28;20522;-85
2023/03/21 14:31:31;;;;;;;3.37;2.70;;;20.30;99.90;;;;;;5005476;28;20472;-83
2023/03/21 14:34:00;;;;;;;4.63;2.67;;;20.70;99.90;;;;;;5003927;28;20456;-84
2023/03/21 14:36:30;;;;;;;3.53;2.23;;;21.00;99.90;;;;;;5002397;28;20521;-83
2023/03/21 14:39:01;;;;;;;3.83;2.37;;;20.90;99.90;;;;;;4986638;28;20436;-85
2023/03/21 14:41:29;;;;;;;3.07;2.03;;;20.70;99.90;;;;;;4996478;28;20460;-83
2023/03/21 14:44:01;;;;;;;4.20;2.53;;;20.60;99.90;;;;;;5001142;28;20454;-83
2023/03/21 14:46:29;;;;;;;4.10;2.27;;;20.40;99.90;;;;;;5000458;28;20518;-84
2023/03/21 14:49:28;;;;;;;4.23;2.17;;;20.20;99.90;;;;;;5002289;28;20435;-84
2023/03/21 14:51:56;;;;;;;6.07;2.20;;;20.00;99.90;;;;;;4999380;28;20458;-82
2023/03/21 14:54:26;;;;;;;3.53;2.30;;;19.80;99.90;;;;;;4985912;28;20873;-84
2023/03/21 14:56:58;;;;;;;4.70;2.03;;;19.50;99.90;;;;;;5002696;28;20895;-81
2023/03/21 14:59:30;;;;;;;3.50;2.10;;;19.40;99.90;;;;;;4999882;28;20438;-83
2023/03/21 15:02:09;;;;;;;;;;;;;;;;;;;;;
2023/03/21 15:04:42;;;;;;;6.30;2.33;;;19.30;99.90;;;;;;5004934;28;20526;-85
2023/03/21 15:07:26;;;;;;;2.73;1.90;;;19.40;99.90;;;;;;5004624;28;20460;-83
2023/03/21 15:09:59;;;;;;;7.33;2.30;;;19.70;99.90;;;;;;4986210;28;20490;-84
2023/03/21 15:12:27;;;;;;;3.77;2.17;;;19.90;99.90;;;;;;5005794;28;20446;-84
2023/03/21 15:14:55;;;;;;;4.97;2.70;;;19.90;99.90;;;;;;5002792;28;20435;-82
2023/03/21 15:17:22;;;;;;;4.87;2.33;;;19.80;99.90;;;;;;5002690;28;20631;-83
2023/03/21 15:19:47;;;;;;;4.00;2.10;;;19.70;99.90;;;;;;5004407;28;20438;-84
2023/03/21 15:22:35;;;;;;;4.83;2.20;;;19.60;99.90;;;;;;5005068;28;20542;-83
2023/03/21 15:25:05;;;;;;;4.50;2.10;;;19.50;99.90;;;;;;5004829;28;20198;-83
2023/03/21 15:27:41;;;;;;;2.77;2.00;;;19.40;99.90;;;;;;5004920;28;20445;-83
2023/03/21 15:30:22;;;;;;;5.50;2.83;;;19.20;99.90;;;;;;5001657;28;20535;-83
2023/03/21 15:32:50;;;;;;;3.77;2.13;;;19.10;99.90;;;;;;5002513;28;20492;-84
2023/03/21 15:35:30;;;;;;;4.13;1.67;;;19.10;99.90;;;;;;5000874;28;20461;-84
2023/03/21 15:37:57;;;;;;;3.30;2.40;;;19.10;99.90;;;;;;5004107;28;20461;-84
2023/03/21 15:40:28;;;;;;;4.03;2.27;;;19.10;99.90;;;;;;5002844;28;20430;-84
2023/03/21 15:43:11;;;;;;;8.67;2.47;;;19.10;99.90;;;;;;5003964;28;20543;-83
2023/03/21 15:45:46;;;;;;;5.00;2.33;;;18.90;99.90;;;;;;5004386;28;20454;-83
2023/03/21 15:48:13;;;;;;;4.97;2.03;;;18.70;99.90;;;;;;4998465;28;20462;-83
2023/03/21 15:51:00;;;;;;;4.00;2.10;;;18.60;99.90;;;;;;5002689;28;20469;-83
2023/03/21 15:53:31;;;;;;;7.90;2.30;;;18.60;99.90;;;;;;4998555;28;20461;-82
2023/03/21 15:56:00;;;;;;;4.60;2.37;;;18.50;99.90;;;;;;5002196;28;20449;-83
2023/03/21 15:58:36;;;;;;;6.63;2.50;;;18.40;99.90;;;;;;4985125;28;20435;-84
2023/03/21 16:01:09;;;;;;;3.50;2.20;;;18.30;99.90;;;;;;4996854;28;20645;-81
2023/03/21 16:03:40;;;;;;;3.50;2.33;;;18.20;99.90;;;;;;5001751;28;20550;-82
2023/03/21 16:06:13;;;;;;;4.43;2.73;;;18.20;99.90;;;;;;4987017;28;20452;-83
2023/03/21 16:09:02;;;;;;;4.60;2.03;;;18.30;99.90;;;;;;4999563;28;20454;-83
2023/03/21 16:11:44;;;;;;;4.43;2.27;;;18.30;99.90;;;;;;4999474;28;20484;-83
2023/03/21 16:14:10;;;;;;;3.83;2.20;;;18.30;99.90;;;;;;4998022;28;21121;-83
2023/03/21 16:16:36;;;;;;;2.70;2.30;;;18.20;99.90;;;;;;5002244;28;20442;-82
2023/03/21 16:19:09;;;;;;;4.00;2.60;;;18.00;99.90;;;;;;4999648;28;20194;-83
2023/03/21 16:21:37;;;;;;;2.90;2.23;;;17.90;99.90;;;;;;5003947;28;20460;-83
2023/03/21 16:24:33;;;;;;;;;;;;;;;;;;;;;
2023/03/21 16:33:47;;;;;;;3.33;2.00;;;17.40;99.90;;;;;;4992420;28;20449;-83
2023/03/21 16:36:20;;;;;;;2.87;2.33;;;17.40;99.90;;;;;;4997581;28;20429;-84
2023/03/21 16:38:48;;;;;;;5.97;2.17;;;17.30;99.90;;;;;;4981712;28;20447;-82
2023/03/21 16:41:14;;;;;;;5.33;2.47;;;17.20;99.90;;;;;;5001404;28;20447;-82
2023/03/21 16:43:46;;;;;;;4.70;2.20;;;17.10;99.90;;;;;;4997629;28;20979;-83
2023/03/21 16:46:17;;;;;;;6.30;2.10;;;17.00;99.90;;;;;;5000744;28;20443;-85
2023/03/21 16:48:45;;;;;;;6.23;1.90;;;16.90;99.90;;;;;;4999827;28;20447;-85
2023/03/21 16:51:16;;;;;;;4.37;2.17;;;16.80;99.90;;;;;;5003687;28;20478;-82
2023/03/21 16:53:43;;;;;;;3.30;2.20;;;16.70;99.90;;;;;;5003790;28;20795;-84
2023/03/21 16:56:16;;;;;;;4.93;2.23;;;16.70;99.90;;;;;;5004972;28;20469;-84
2023/03/21 16:58:41;;;;;;;5.53;2.53;;;16.60;99.90;;;;;;4988436;28;20438;-83
2023/03/21 17:01:15;;;;;;;3.37;2.37;;;16.50;99.90;;;;;;4984746;28;20447;-83
2023/03/21 17:03:40;;;;;;;3.07;2.27;;;16.40;99.90;;;;;;5004509;28;20183;-82
2023/03/21 17:06:11;;;;;;;2.90;1.97;;;16.30;99.90;;;;;;5003352;28;20485;-82
2023/03/21 17:08:37;;;;;;;3.17;2.10;;;16.30;99.90;;;;;;5002657;28;20191;-82
2023/03/21 17:11:16;;;;;;;3.70;2.27;;;16.20;99.90;;;;;;5007133;28;21184;-83
2023/03/21 17:13:46;;;;;;;6.00;2.90;;;16.20;99.90;;;;;;5003242;28;20254;-83
2023/03/21 17:16:14;;;;;;;3.30;2.43;;;16.10;99.90;;;;;;5002427;28;20490;-85
2023/03/21 17:18:42;;;;;;;6.07;2.20;;;16.10;99.90;;;;;;5000202;28;20528;-84
2023/03/21 17:21:14;;;;;;;5.77;2.70;;;16.00;99.90;;;;;;5003313;28;20509;-82
2023/03/21 17:23:40;;;;;;;5.53;2.10;;;16.00;99.90;;;;;;4985840;28;20434;-81
2023/03/21 17:26:10;;;;;;;4.67;2.20;;;16.00;99.90;;;;;;5004448;28;20431;-84
2023/03/21 17:35:06;;;;;;;3.90;3.10;;;15.90;99.90;;;;;;4987997;28;20537;-83
2023/03/21 17:38:21;;;;;;;4.03;2.50;;;15.80;99.90;;;;;;5004717;28;20454;-80
2023/03/21 17:47:54;;;;;;;;;;;;;;;;;;;;;
2023/03/21 17:51:11;;;;;;;8.03;2.80;;;15.60;99.90;;;;;;4999564;28;20524;-83
2023/03/21 18:00:23;;;;;;;;;;;;;;;;;;;;;
2023/03/21 18:03:04;;;;;;;4.63;2.93;;;15.40;99.90;;;;;;4999884;28;20527;-83
2023/03/21 18:05:39;;;;;;;;;;;;;;;;;;;;;
2023/03/21 18:08:53;;;;;;;5.90;2.90;;;15.30;99.90;;;;;;5005195;28;20469;-83
2023/03/21 18:25:07;;;;;;;;;;;;;;;;;;;;;
2023/03/21 18:39:06;;;;;;;;;;;;;;;;;;;;;
2023/03/21 18:59:18;;;;;;;8.97;4.13;;;15.00;99.90;;;;;;4954963;28;20433;-83
2023/03/21 22:24:38;;;;;;;;;;;;;;;;;;;;;
2023/03/21 22:30:57;;;;;;;;;;;;;;;;;;;;;
2023/03/21 22:33:36;;;;;;;;;;;;;;;;;;;;;
2023/03/21 22:36:35;;;;;;;;;;;;;;;;;;;;;
2023/03/21 22:39:27;;;;;;;;;;;;;;;;;;;;;
2023/03/21 22:42:44;;;;;;;;;;;;;;;;;;;;;
2023/03/21 22:49:38;;;;;;;;;;;;;;;;;;;;;
2023/03/21 23:03:11;;;;;;;9.17;8.23;;;13.00;99.90;;;;;;4963541;28;20865;-85
2023/03/21 23:16:19;;;;;;;9.80;7.70;;;13.10;99.90;;;;;;4975961;28;20443;-83
2023/03/21 23:23:05;;;;;;;;;;;;;;;;;;;;;
2023/03/21 23:30:05;;;;;;;;;;;;;;;;;;;;;
2023/03/21 23:33:14;;;;;;;;;;;;;;;;;;;;;
2023/03/21 23:53:07;;;;;;;;;;;;;;;;;;;;;
2023/03/21 23:59:22;;;;;;;;;;;;;;;;;;;;;
